Time;durP1;ratioP1;P1;durP2;ratioP2;P2;SDS_P1;SDS_P2;PMS_P1;PMS_P2;Temp;Humidity;BMP_temperature;BMP_pressure;BME280_temperature;BME280_humidity;BME280_pressure;Samples;Min_cycle;Max_cycle;Signal;HPM_P1;HPM_P2
2023/08/05 00:04:49;;;;;;;3.05;0.70;;;;;;;;;;20997519;28;20045;-61
2023/08/05 00:14:50;;;;;;;2.92;0.60;;;;;;;;;;20997364;28;20529;-62
2023/08/05 00:24:51;;;;;;;1.52;0.55;;;;;;;;;;20997169;28;20047;-62
2023/08/05 00:34:52;;;;;;;2.83;0.90;;;;;;;;;;20996754;28;20044;-63
2023/08/05 00:44:53;;;;;;;2.67;0.98;;;;;;;;;;20996909;28;20045;-62
2023/08/05 00:54:55;;;;;;;3.28;0.70;;;;;;;;;;20995317;28;20182;-62
2023/08/05 01:04:56;;;;;;;3.13;1.15;;;;;;;;;;20995928;28;20099;-62
2023/08/05 01:14:57;;;;;;;2.55;0.52;;;;;;;;;;20993737;28;20056;-62
2023/08/05 01:25:05;;;;;;;4.50;0.85;;;;;;;;;;20995334;28;20088;-62
2023/08/05 01:35:09;;;;;;;1.42;0.75;;;;;;;;;;20995165;28;20462;-62
2023/08/05 01:45:10;;;;;;;3.42;1.17;;;;;;;;;;20995293;28;20083;-62
2023/08/05 01:55:11;;;;;;;2.65;0.70;;;;;;;;;;20993912;28;20040;-62
2023/08/05 02:05:12;;;;;;;3.67;0.88;;;;;;;;;;20992528;28;20052;-62
2023/08/05 02:15:13;;;;;;;2.75;0.80;;;;;;;;;;20991918;28;20056;-62
2023/08/05 02:25:14;;;;;;;2.58;0.73;;;;;;;;;;21000189;28;20057;-62
2023/08/05 02:35:15;;;;;;;2.90;0.77;;;;;;;;;;21007590;28;20040;-62
2023/08/05 02:45:17;;;;;;;1.70;0.80;;;;;;;;;;21006550;28;20103;-62
2023/08/05 02:55:18;;;;;;;2.83;0.95;;;;;;;;;;21005816;28;20076;-62
2023/08/05 03:05:19;;;;;;;1.35;0.50;;;;;;;;;;21003652;28;20051;-64
2023/08/05 03:15:20;;;;;;;2.30;0.90;;;;;;;;;;21005015;28;20088;-63
2023/08/05 03:25:24;;;;;;;2.13;0.73;;;;;;;;;;21001992;28;20044;-62
2023/08/05 03:35:25;;;;;;;1.58;0.80;;;;;;;;;;21001527;28;20051;-62
2023/08/05 03:45:26;;;;;;;6.50;0.85;;;;;;;;;;21001575;28;20076;-62
2023/08/05 03:55:28;;;;;;;2.83;0.90;;;;;;;;;;21001053;28;20045;-62
2023/08/05 04:05:29;;;;;;;2.08;0.98;;;;;;;;;;20999955;28;20080;-63
2023/08/05 04:15:33;;;;;;;2.08;0.98;;;;;;;;;;20998410;28;20129;-62
2023/08/05 04:25:34;;;;;;;1.40;0.70;;;;;;;;;;20999018;28;20054;-62
2023/08/05 04:35:36;;;;;;;3.63;0.90;;;;;;;;;;20998244;28;20075;-63
2023/08/05 04:45:37;;;;;;;2.47;1.00;;;;;;;;;;20997100;28;20127;-62
2023/08/05 04:55:39;;;;;;;1.80;1.10;;;;;;;;;;20996715;28;20049;-62
2023/08/05 05:05:43;;;;;;;1.00;0.60;;;;;;;;;;20996488;28;20123;-62
2023/08/05 05:15:44;;;;;;;4.07;1.05;;;;;;;;;;20994313;28;20056;-63
2023/08/05 05:25:45;;;;;;;3.30;1.13;;;;;;;;;;20995476;28;20040;-62
2023/08/05 05:35:50;;;;;;;2.17;1.27;;;;;;;;;;20993850;28;20101;-62
2023/08/05 05:45:54;;;;;;;1.77;1.00;;;;;;;;;;20994415;28;20383;-63
2023/08/05 05:55:55;;;;;;;3.80;0.90;;;;;;;;;;20993889;28;20055;-62
2023/08/05 06:05:58;;;;;;;2.08;0.90;;;;;;;;;;21009472;28;20501;-63
2023/08/05 06:15:59;;;;;;;3.83;1.00;;;;;;;;;;21007935;28;20125;-62
2023/08/05 06:26:00;;;;;;;1.77;0.85;;;;;;;;;;21008202;28;20041;-63
2023/08/05 06:36:01;;;;;;;4.40;0.90;;;;;;;;;;21007221;28;20521;-63
2023/08/05 06:46:03;;;;;;;2.15;0.80;;;;;;;;;;21005879;28;20048;-62
2023/08/05 06:56:05;;;;;;;1.83;0.73;;;;;;;;;;21005192;28;20383;-62
2023/08/05 07:06:06;;;;;;;2.03;0.80;;;;;;;;;;21003770;28;20056;-63
2023/08/05 07:16:07;;;;;;;3.08;1.00;;;;;;;;;;21001333;28;20060;-62
2023/08/05 07:26:08;;;;;;;2.83;0.95;;;;;;;;;;21002933;28;20044;-63
2023/08/05 07:36:11;;;;;;;2.65;0.80;;;;;;;;;;21000759;28;20056;-63
2023/08/05 07:46:13;;;;;;;5.10;1.05;;;;;;;;;;21001378;28;20506;-62
2023/08/05 07:56:16;;;;;;;3.50;1.05;;;;;;;;;;20999758;28;20051;-62
2023/08/05 08:06:18;;;;;;;3.83;0.98;;;;;;;;;;21000294;28;20059;-63
2023/08/05 08:16:20;;;;;;;3.85;1.08;;;;;;;;;;21000285;28;20059;-63
2023/08/05 08:26:21;;;;;;;2.33;1.00;;;;;;;;;;20997924;28;20040;-63
2023/08/05 08:36:22;;;;;;;2.95;0.93;;;;;;;;;;20997232;28;20051;-62
2023/08/05 08:46:23;;;;;;;4.38;0.98;;;;;;;;;;20996553;28;20120;-63
2023/08/05 08:56:24;;;;;;;3.17;1.23;;;;;;;;;;20996788;28;20041;-62
2023/08/05 09:06:26;;;;;;;2.63;1.10;;;;;;;;;;20995194;28;20048;-61
2023/08/05 09:16:27;;;;;;;2.85;1.15;;;;;;;;;;20994274;28;20086;-62
2023/08/05 09:26:29;;;;;;;4.93;1.35;;;;;;;;;;20995182;28;20051;-63
2023/08/05 09:36:32;;;;;;;3.83;1.50;;;;;;;;;;21004256;28;20045;-62
2023/08/05 09:46:43;;;;;;;2.85;0.85;;;;;;;;;;21009165;28;20052;-63
2023/08/05 09:56:44;;;;;;;2.60;0.95;;;;;;;;;;21008603;28;20054;-63
2023/08/05 10:06:47;;;;;;;6.32;1.40;;;;;;;;;;21009260;28;20044;-62
2023/08/05 10:16:49;;;;;;;4.82;1.20;;;;;;;;;;21006856;28;20571;-62
2023/08/05 10:26:51;;;;;;;3.85;0.95;;;;;;;;;;21006449;28;20040;-62
2023/08/05 10:36:57;;;;;;;2.30;1.30;;;;;;;;;;21007106;28;20363;-63
2023/08/05 10:47:02;;;;;;;4.63;1.27;;;;;;;;;;21006326;28;20490;-63
2023/08/05 10:57:12;;;;;;;1.50;0.95;;;;;;;;;;21005841;28;20079;-62
2023/08/05 11:07:13;;;;;;;2.58;1.20;;;;;;;;;;21004256;28;20048;-63
2023/08/05 11:17:14;;;;;;;3.38;1.00;;;;;;;;;;21002910;28;20513;-62
2023/08/05 11:27:16;;;;;;;2.50;1.25;;;;;;;;;;21003309;28;20414;-63
2023/08/05 11:37:23;;;;;;;6.32;1.88;;;;;;;;;;21002562;28;20040;-63
2023/08/05 11:47:24;;;;;;;3.65;1.48;;;;;;;;;;21002192;28;20492;-65
2023/08/05 11:57:26;;;;;;;2.50;1.40;;;;;;;;;;20999840;28;20119;-63
2023/08/05 12:07:28;;;;;;;1.75;0.90;;;;;;;;;;20998653;28;20052;-63
2023/08/05 12:17:29;;;;;;;4.55;1.60;;;;;;;;;;20999567;28;20493;-63
2023/08/05 12:27:30;;;;;;;3.88;2.60;;;;;;;;;;20998300;28;20044;-63
2023/08/05 12:37:36;;;;;;;10.88;5.40;;;;;;;;;;20997297;28;20044;-62
2023/08/05 12:47:38;;;;;;;3.33;1.30;;;;;;;;;;20997166;28;20379;-63
2023/08/05 12:57:39;;;;;;;3.88;1.35;;;;;;;;;;20996685;28;20044;-63
2023/08/05 13:07:40;;;;;;;2.90;1.45;;;;;;;;;;20996161;28;20473;-63
2023/08/05 13:17:41;;;;;;;8.10;1.30;;;;;;;;;;20993715;28;20056;-63
2023/08/05 13:27:43;;;;;;;3.88;1.70;;;;;;;;;;20993725;28;20113;-62
2023/08/05 13:37:44;;;;;;;2.28;1.15;;;;;;;;;;20994178;28;20076;-62
2023/08/05 13:47:45;;;;;;;2.97;1.30;;;;;;;;;;20994134;28;20488;-63
2023/08/05 13:57:46;;;;;;;4.70;1.63;;;;;;;;;;20992534;28;20032;-62
2023/08/05 14:07:48;;;;;;;3.22;1.35;;;;;;;;;;20993419;28;20513;-63
2023/08/05 14:17:49;;;;;;;3.75;1.30;;;;;;;;;;20992654;28;20071;-63
2023/08/05 14:27:50;;;;;;;1.60;0.88;;;;;;;;;;21006808;28;20102;-63
2023/08/05 14:37:51;;;;;;;3.63;1.30;;;;;;;;;;21006998;28;20041;-63
2023/08/05 14:47:52;;;;;;;4.25;1.45;;;;;;;;;;21006092;28;20505;-63
2023/08/05 14:57:54;;;;;;;4.25;2.05;;;;;;;;;;21006134;28;20555;-63
2023/08/05 15:07:55;;;;;;;3.00;1.42;;;;;;;;;;21006063;28;20048;-63
2023/08/05 15:17:56;;;;;;;7.82;1.98;;;;;;;;;;21003575;28;20058;-62
2023/08/05 15:27:57;;;;;;;5.70;1.30;;;;;;;;;;21004591;28;20201;-63
2023/08/05 15:37:58;;;;;;;6.88;1.85;;;;;;;;;;21002230;28;20045;-63
2023/08/05 15:47:59;;;;;;;3.78;1.65;;;;;;;;;;21001263;28;20048;-63
2023/08/05 15:58:01;;;;;;;7.00;1.40;;;;;;;;;;21000563;28;20041;-63
2023/08/05 16:08:02;;;;;;;3.78;1.50;;;;;;;;;;21000897;28;20501;-64
2023/08/05 16:18:04;;;;;;;6.18;1.63;;;;;;;;;;21000068;28;20055;-63
2023/08/05 16:28:05;;;;;;;4.15;1.73;;;;;;;;;;20998769;28;20115;-64
2023/08/05 16:38:06;;;;;;;5.65;1.55;;;;;;;;;;20998359;28;20386;-64
2023/08/05 16:48:07;;;;;;;3.13;1.55;;;;;;;;;;20997796;28;20238;-63
2023/08/05 16:58:08;;;;;;;6.00;2.00;;;;;;;;;;20996722;28;20429;-63
2023/08/05 17:08:09;;;;;;;2.67;1.23;;;;;;;;;;20995865;28;20132;-64
2023/08/05 17:18:14;;;;;;;4.03;1.75;;;;;;;;;;20996045;28;20044;-64
2023/08/05 17:28:15;;;;;;;3.90;1.27;;;;;;;;;;20995733;28;20123;-64
2023/08/05 17:38:16;;;;;;;6.78;2.15;;;;;;;;;;20995497;28;20068;-63
2023/08/05 17:48:19;;;;;;;6.38;2.00;;;;;;;;;;20993833;28;20059;-64
2023/08/05 17:58:20;;;;;;;4.60;1.83;;;;;;;;;;21004237;28;20041;-68
2023/08/05 18:08:21;;;;;;;4.70;2.05;;;;;;;;;;21011199;28;20051;-68
2023/08/05 18:18:23;;;;;;;8.77;2.45;;;;;;;;;;21009849;28;20120;-68
2023/08/05 18:28:24;;;;;;;8.10;2.80;;;;;;;;;;21008882;28;20055;-68
2023/08/05 18:38:25;;;;;;;7.70;4.07;;;;;;;;;;21008417;28;20505;-69
2023/08/05 18:48:26;;;;;;;8.38;3.13;;;;;;;;;;21006736;28;20098;-69
2023/08/05 18:58:27;;;;;;;8.45;2.85;;;;;;;;;;21007447;28;20048;-67
2023/08/05 19:08:29;;;;;;;6.32;3.15;;;;;;;;;;21005264;28;20059;-68
2023/08/05 19:18:31;;;;;;;5.50;2.25;;;;;;;;;;21006951;28;20469;-68
2023/08/05 19:28:32;;;;;;;5.30;2.22;;;;;;;;;;21005147;28;20079;-68
2023/08/05 19:38:33;;;;;;;4.15;1.88;;;;;;;;;;21004088;28;20078;-68
2023/08/05 19:48:35;;;;;;;6.45;2.60;;;;;;;;;;21002944;28;20509;-69
2023/08/05 19:58:36;;;;;;;5.53;2.28;;;;;;;;;;21002506;28;20045;-68
2023/08/05 20:08:37;;;;;;;10.93;6.88;;;;;;;;;;21000265;28;20049;-68
2023/08/05 20:18:38;;;;;;;6.07;2.83;;;;;;;;;;20999295;28;20048;-68
2023/08/05 20:28:39;;;;;;;7.28;2.92;;;;;;;;;;21000309;28;20072;-68
2023/08/05 20:38:40;;;;;;;5.35;2.55;;;;;;;;;;20999667;28;20127;-68
2023/08/05 20:48:47;;;;;;;10.07;2.25;;;;;;;;;;20998818;28;20119;-64
2023/08/05 20:58:49;;;;;;;8.50;2.92;;;;;;;;;;20998027;28;20071;-65
2023/08/05 21:08:50;;;;;;;7.10;3.38;;;;;;;;;;20997126;28;20591;-65
2023/08/05 21:18:51;;;;;;;122.50;95.80;;;;;;;;;;20997148;28;20052;-64
2023/08/05 21:28:52;;;;;;;10.73;5.57;;;;;;;;;;20997266;28;20040;-63
2023/08/05 21:38:53;;;;;;;9.07;3.53;;;;;;;;;;20996173;28;20398;-65
2023/08/05 21:48:54;;;;;;;8.23;4.25;;;;;;;;;;20995894;28;20401;-63
2023/08/05 21:58:55;;;;;;;9.70;4.10;;;;;;;;;;20995305;28;20048;-65
2023/08/05 22:08:58;;;;;;;12.05;4.50;;;;;;;;;;20993437;28;20044;-63
2023/08/05 22:18:59;;;;;;;10.60;4.25;;;;;;;;;;20988889;28;20098;-64
2023/08/05 22:29:00;;;;;;;13.32;5.22;;;;;;;;;;20989680;28;20040;-64
2023/08/05 22:39:02;;;;;;;11.68;4.72;;;;;;;;;;20989138;28;20045;-64
2023/08/05 22:49:03;;;;;;;11.18;3.67;;;;;;;;;;21003648;28;20040;-63
2023/08/05 22:59:04;;;;;;;9.77;3.95;;;;;;;;;;21002951;28;20445;-63
2023/08/05 23:09:05;;;;;;;11.10;3.30;;;;;;;;;;20955216;28;1324418;-63
2023/08/05 23:19:06;;;;;;;13.30;4.53;;;;;;;;;;21004822;28;20062;-64
2023/08/05 23:29:07;;;;;;;13.63;7.15;;;;;;;;;;21006550;28;20049;-63
2023/08/05 23:39:09;;;;;;;14.07;4.50;;;;;;;;;;21004732;28;20110;-64
2023/08/05 23:49:10;;;;;;;11.85;4.53;;;;;;;;;;21003528;28;20513;-63
2023/08/05 23:59:11;;;;;;;16.92;7.20;;;;;;;;;;21000465;28;20041;-63
